sensor_id;sensor_type;location;lat;lon;timestamp;P1;durP1;ratioP1;P2;durP2;ratioP2
22565;SDS011;11449;51.330;19.378;2023-02-01T00:00:36;2.00;;;1.60;;
22565;SDS011;11449;51.330;19.378;2023-02-01T00:05:59;2.30;;;1.50;;
22565;SDS011;11449;51.330;19.378;2023-02-01T00:11:06;2.00;;;1.30;;
22565;SDS011;11449;51.330;19.378;2023-02-01T00:16:15;2.50;;;1.10;;
22565;SDS011;11449;51.330;19.378;2023-02-01T00:21:27;1.80;;;1.30;;
22565;SDS011;11449;51.330;19.378;2023-02-01T00:26:36;1.80;;;0.80;;
22565;SDS011;11449;51.330;19.378;2023-02-01T00:31:49;1.30;;;0.70;;
22565;SDS011;11449;51.330;19.378;2023-02-01T00:36:56;3.40;;;0.90;;
22565;SDS011;11449;51.330;19.378;2023-02-01T00:42:04;4.30;;;0.80;;
22565;SDS011;11449;51.330;19.378;2023-02-01T00:47:07;2.60;;;1.00;;
22565;SDS011;11449;51.330;19.378;2023-02-01T00:52:13;7.70;;;1.30;;
22565;SDS011;11449;51.330;19.378;2023-02-01T00:57:24;5.50;;;1.20;;
22565;SDS011;11449;51.330;19.378;2023-02-01T01:02:27;11.40;;;1.30;;
22565;SDS011;11449;51.330;19.378;2023-02-01T01:07:35;4.00;;;1.30;;
22565;SDS011;11449;51.330;19.378;2023-02-01T01:12:38;5.80;;;1.10;;
22565;SDS011;11449;51.330;19.378;2023-02-01T01:17:46;5.70;;;1.50;;
22565;SDS011;11449;51.330;19.378;2023-02-01T01:22:54;6.10;;;1.10;;
22565;SDS011;11449;51.330;19.378;2023-02-01T01:28:09;4.10;;;1.00;;
22565;SDS011;11449;51.330;19.378;2023-02-01T01:33:15;4.20;;;1.50;;
22565;SDS011;11449;51.330;19.378;2023-02-01T01:38:25;3.90;;;1.00;;
22565;SDS011;11449;51.330;19.378;2023-02-01T01:43:53;6.00;;;1.60;;
22565;SDS011;11449;51.330;19.378;2023-02-01T01:54:18;3.40;;;1.00;;
22565;SDS011;11449;51.330;19.378;2023-02-01T01:59:27;5.40;;;1.30;;
22565;SDS011;11449;51.330;19.378;2023-02-01T02:04:39;5.50;;;1.90;;
22565;SDS011;11449;51.330;19.378;2023-02-01T02:09:47;8.40;;;1.60;;
22565;SDS011;11449;51.330;19.378;2023-02-01T02:14:55;4.70;;;1.10;;
22565;SDS011;11449;51.330;19.378;2023-02-01T02:35:43;4.40;;;1.40;;
22565;SDS011;11449;51.330;19.378;2023-02-01T02:41:13;3.50;;;1.30;;
22565;SDS011;11449;51.330;19.378;2023-02-01T02:47:11;9.20;;;2.00;;
22565;SDS011;11449;51.330;19.378;2023-02-01T02:52:31;10.00;;;2.00;;
22565;SDS011;11449;51.330;19.378;2023-02-01T02:57:58;9.40;;;2.00;;
22565;SDS011;11449;51.330;19.378;2023-02-01T03:03:20;11.00;;;2.30;;
22565;SDS011;11449;51.330;19.378;2023-02-01T03:08:47;8.10;;;1.90;;
22565;SDS011;11449;51.330;19.378;2023-02-01T03:13:56;9.40;;;2.00;;
22565;SDS011;11449;51.330;19.378;2023-02-01T03:24:25;11.00;;;2.10;;
22565;SDS011;11449;51.330;19.378;2023-02-01T03:29:43;10.80;;;2.20;;
22565;SDS011;11449;51.330;19.378;2023-02-01T03:34:52;7.60;;;1.90;;
22565;SDS011;11449;51.330;19.378;2023-02-01T03:40:03;9.10;;;2.40;;
22565;SDS011;11449;51.330;19.378;2023-02-01T03:45:13;7.20;;;2.50;;
22565;SDS011;11449;51.330;19.378;2023-02-01T03:50:27;14.30;;;2.90;;
22565;SDS011;11449;51.330;19.378;2023-02-01T03:55:36;16.20;;;3.80;;
22565;SDS011;11449;51.330;19.378;2023-02-01T04:00:47;14.30;;;3.80;;
22565;SDS011;11449;51.330;19.378;2023-02-01T04:05:57;15.80;;;3.70;;
22565;SDS011;11449;51.330;19.378;2023-02-01T04:11:08;49.30;;;7.10;;
22565;SDS011;11449;51.330;19.378;2023-02-01T04:16:17;65.20;;;8.50;;
22565;SDS011;11449;51.330;19.378;2023-02-01T04:21:32;61.10;;;7.80;;
22565;SDS011;11449;51.330;19.378;2023-02-01T04:26:40;66.70;;;9.50;;
22565;SDS011;11449;51.330;19.378;2023-02-01T04:31:48;82.00;;;10.80;;
22565;SDS011;11449;51.330;19.378;2023-02-01T04:36:56;74.20;;;10.90;;
22565;SDS011;11449;51.330;19.378;2023-02-01T04:42:07;47.10;;;7.70;;
22565;SDS011;11449;51.330;19.378;2023-02-01T04:47:11;51.70;;;7.80;;
22565;SDS011;11449;51.330;19.378;2023-02-01T04:52:14;50.10;;;7.10;;
22565;SDS011;11449;51.330;19.378;2023-02-01T04:57:22;52.40;;;7.30;;
22565;SDS011;11449;51.330;19.378;2023-02-01T05:02:28;50.20;;;7.40;;
22565;SDS011;11449;51.330;19.378;2023-02-01T05:07:41;50.30;;;7.40;;
22565;SDS011;11449;51.330;19.378;2023-02-01T05:12:50;40.80;;;6.50;;
22565;SDS011;11449;51.330;19.378;2023-02-01T05:18:17;43.80;;;6.80;;
22565;SDS011;11449;51.330;19.378;2023-02-01T05:23:22;47.40;;;6.80;;
22565;SDS011;11449;51.330;19.378;2023-02-01T05:28:35;44.00;;;6.10;;
22565;SDS011;11449;51.330;19.378;2023-02-01T05:33:43;51.80;;;9.00;;
22565;SDS011;11449;51.330;19.378;2023-02-01T05:38:51;49.20;;;6.80;;
22565;SDS011;11449;51.330;19.378;2023-02-01T05:44:04;34.30;;;5.10;;
22565;SDS011;11449;51.330;19.378;2023-02-01T05:49:14;38.60;;;4.80;;
22565;SDS011;11449;51.330;19.378;2023-02-01T05:54:45;39.10;;;4.80;;
22565;SDS011;11449;51.330;19.378;2023-02-01T06:05:16;16.50;;;2.90;;
22565;SDS011;11449;51.330;19.378;2023-02-01T06:10:24;16.30;;;2.80;;
22565;SDS011;11449;51.330;19.378;2023-02-01T06:15:32;16.20;;;2.50;;
22565;SDS011;11449;51.330;19.378;2023-02-01T06:20:40;18.30;;;3.50;;
22565;SDS011;11449;51.330;19.378;2023-02-01T06:25:48;30.00;;;8.90;;
22565;SDS011;11449;51.330;19.378;2023-02-01T06:30:56;16.70;;;6.00;;
22565;SDS011;11449;51.330;19.378;2023-02-01T06:36:06;13.80;;;3.70;;
22565;SDS011;11449;51.330;19.378;2023-02-01T06:41:14;8.80;;;2.60;;
22565;SDS011;11449;51.330;19.378;2023-02-01T06:46:23;15.80;;;4.10;;
22565;SDS011;11449;51.330;19.378;2023-02-01T06:51:30;14.80;;;4.00;;
22565;SDS011;11449;51.330;19.378;2023-02-01T06:56:33;15.40;;;3.80;;
22565;SDS011;11449;51.330;19.378;2023-02-01T07:01:41;22.40;;;6.40;;
22565;SDS011;11449;51.330;19.378;2023-02-01T07:06:49;35.40;;;7.50;;
22565;SDS011;11449;51.330;19.378;2023-02-01T07:11:57;39.60;;;6.10;;
22565;SDS011;11449;51.330;19.378;2023-02-01T07:17:07;49.50;;;6.10;;
22565;SDS011;11449;51.330;19.378;2023-02-01T07:22:18;51.20;;;6.50;;
22565;SDS011;11449;51.330;19.378;2023-02-01T07:27:21;53.00;;;7.70;;
22565;SDS011;11449;51.330;19.378;2023-02-01T07:32:31;39.70;;;5.70;;
22565;SDS011;11449;51.330;19.378;2023-02-01T07:37:38;41.90;;;6.10;;
22565;SDS011;11449;51.330;19.378;2023-02-01T07:42:47;47.20;;;6.50;;
22565;SDS011;11449;51.330;19.378;2023-02-01T07:47:53;49.80;;;6.40;;
22565;SDS011;11449;51.330;19.378;2023-02-01T07:53:01;42.80;;;6.80;;
22565;SDS011;11449;51.330;19.378;2023-02-01T07:58:09;50.40;;;7.00;;
22565;SDS011;11449;51.330;19.378;2023-02-01T08:03:12;54.60;;;5.70;;
22565;SDS011;11449;51.330;19.378;2023-02-01T08:08:19;39.70;;;5.70;;
22565;SDS011;11449;51.330;19.378;2023-02-01T08:13:27;43.50;;;5.70;;
22565;SDS011;11449;51.330;19.378;2023-02-01T08:18:36;44.50;;;5.90;;
22565;SDS011;11449;51.330;19.378;2023-02-01T08:23:44;14.30;;;3.70;;
22565;SDS011;11449;51.330;19.378;2023-02-01T08:28:53;16.50;;;3.50;;
22565;SDS011;11449;51.330;19.378;2023-02-01T08:34:02;23.00;;;8.60;;
22565;SDS011;11449;51.330;19.378;2023-02-01T08:39:06;45.90;;;9.80;;
22565;SDS011;11449;51.330;19.378;2023-02-01T08:44:16;50.30;;;8.00;;
22565;SDS011;11449;51.330;19.378;2023-02-01T08:49:19;47.90;;;7.30;;
22565;SDS011;11449;51.330;19.378;2023-02-01T08:54:27;60.50;;;9.90;;
22565;SDS011;11449;51.330;19.378;2023-02-01T08:59:37;121.60;;;14.10;;
22565;SDS011;11449;51.330;19.378;2023-02-01T09:05:07;50.10;;;8.30;;
22565;SDS011;11449;51.330;19.378;2023-02-01T09:10:15;51.10;;;9.00;;
22565;SDS011;11449;51.330;19.378;2023-02-01T09:15:21;67.30;;;9.30;;
22565;SDS011;11449;51.330;19.378;2023-02-01T09:20:29;44.90;;;7.50;;
22565;SDS011;11449;51.330;19.378;2023-02-01T09:25:37;35.20;;;7.30;;
22565;SDS011;11449;51.330;19.378;2023-02-01T09:30:45;42.50;;;8.00;;
22565;SDS011;11449;51.330;19.378;2023-02-01T09:35:48;56.50;;;11.80;;
22565;SDS011;11449;51.330;19.378;2023-02-01T09:40:51;54.90;;;11.80;;
22565;SDS011;11449;51.330;19.378;2023-02-01T09:46:04;54.40;;;9.60;;
22565;SDS011;11449;51.330;19.378;2023-02-01T09:51:19;69.60;;;13.00;;
22565;SDS011;11449;51.330;19.378;2023-02-01T09:56:32;62.00;;;11.10;;
22565;SDS011;11449;51.330;19.378;2023-02-01T10:01:42;58.90;;;10.90;;
22565;SDS011;11449;51.330;19.378;2023-02-01T10:12:15;41.20;;;7.10;;
22565;SDS011;11449;51.330;19.378;2023-02-01T10:22:57;44.80;;;7.00;;
22565;SDS011;11449;51.330;19.378;2023-02-01T10:28:02;49.00;;;7.20;;
22565;SDS011;11449;51.330;19.378;2023-02-01T10:33:16;42.70;;;6.80;;
22565;SDS011;11449;51.330;19.378;2023-02-01T10:38:27;47.40;;;6.90;;
22565;SDS011;11449;51.330;19.378;2023-02-01T10:43:30;49.50;;;7.70;;
22565;SDS011;11449;51.330;19.378;2023-02-01T10:48:38;47.10;;;7.60;;
22565;SDS011;11449;51.330;19.378;2023-02-01T10:59:00;18.00;;;6.30;;
22565;SDS011;11449;51.330;19.378;2023-02-01T11:04:12;17.20;;;4.80;;
22565;SDS011;11449;51.330;19.378;2023-02-01T11:09:30;17.20;;;5.70;;
22565;SDS011;11449;51.330;19.378;2023-02-01T11:14:36;23.00;;;6.50;;
22565;SDS011;11449;51.330;19.378;2023-02-01T11:20:05;20.50;;;5.10;;
22565;SDS011;11449;51.330;19.378;2023-02-01T11:25:15;16.10;;;4.70;;
22565;SDS011;11449;51.330;19.378;2023-02-01T11:30:33;18.80;;;6.70;;
22565;SDS011;11449;51.330;19.378;2023-02-01T11:35:44;15.40;;;5.10;;
22565;SDS011;11449;51.330;19.378;2023-02-01T11:40:53;35.70;;;6.50;;
22565;SDS011;11449;51.330;19.378;2023-02-01T11:45:59;41.70;;;6.20;;
22565;SDS011;11449;51.330;19.378;2023-02-01T12:12:06;28.80;;;5.90;;
22565;SDS011;11449;51.330;19.378;2023-02-01T12:17:40;34.50;;;6.20;;
22565;SDS011;11449;51.330;19.378;2023-02-01T12:28:04;35.20;;;6.20;;
22565;SDS011;11449;51.330;19.378;2023-02-01T12:33:24;43.90;;;8.00;;
22565;SDS011;11449;51.330;19.378;2023-02-01T12:55:16;42.00;;;7.40;;
22565;SDS011;11449;51.330;19.378;2023-02-01T13:16:43;37.90;;;8.30;;
22565;SDS011;11449;51.330;19.378;2023-02-01T13:21:57;59.20;;;9.80;;
22565;SDS011;11449;51.330;19.378;2023-02-01T13:27:08;46.40;;;9.70;;
22565;SDS011;11449;51.330;19.378;2023-02-01T13:32:27;43.40;;;8.10;;
22565;SDS011;11449;51.330;19.378;2023-02-01T13:43:35;43.80;;;7.30;;
22565;SDS011;11449;51.330;19.378;2023-02-01T13:53:54;41.00;;;6.90;;
22565;SDS011;11449;51.330;19.378;2023-02-01T13:59:01;50.50;;;11.00;;
22565;SDS011;11449;51.330;19.378;2023-02-01T14:09:53;44.20;;;10.30;;
22565;SDS011;11449;51.330;19.378;2023-02-01T14:20:46;46.20;;;11.20;;
22565;SDS011;11449;51.330;19.378;2023-02-01T14:26:01;42.20;;;8.80;;
22565;SDS011;11449;51.330;19.378;2023-02-01T14:31:14;46.50;;;9.80;;
22565;SDS011;11449;51.330;19.378;2023-02-01T14:36:20;37.40;;;8.10;;
22565;SDS011;11449;51.330;19.378;2023-02-01T14:41:31;34.20;;;7.00;;
22565;SDS011;11449;51.330;19.378;2023-02-01T14:52:09;30.30;;;6.70;;
22565;SDS011;11449;51.330;19.378;2023-02-01T14:57:23;40.40;;;8.20;;
22565;SDS011;11449;51.330;19.378;2023-02-01T15:02:27;46.10;;;8.70;;
22565;SDS011;11449;51.330;19.378;2023-02-01T15:07:37;29.40;;;6.20;;
22565;SDS011;11449;51.330;19.378;2023-02-01T15:12:45;31.50;;;6.50;;
22565;SDS011;11449;51.330;19.378;2023-02-01T15:17:55;33.00;;;6.70;;
22565;SDS011;11449;51.330;19.378;2023-02-01T15:23:06;37.30;;;6.70;;
22565;SDS011;11449;51.330;19.378;2023-02-01T15:28:15;25.70;;;5.90;;
22565;SDS011;11449;51.330;19.378;2023-02-01T15:33:24;61.50;;;10.80;;
22565;SDS011;11449;51.330;19.378;2023-02-01T15:38:33;53.10;;;8.40;;
22565;SDS011;11449;51.330;19.378;2023-02-01T15:48:49;41.20;;;8.70;;
22565;SDS011;11449;51.330;19.378;2023-02-01T15:53:59;36.10;;;7.60;;
22565;SDS011;11449;51.330;19.378;2023-02-01T15:59:04;32.60;;;6.50;;
22565;SDS011;11449;51.330;19.378;2023-02-01T16:04:22;40.90;;;7.90;;
22565;SDS011;11449;51.330;19.378;2023-02-01T16:09:37;58.50;;;9.90;;
22565;SDS011;11449;51.330;19.378;2023-02-01T16:19:49;53.40;;;8.10;;
22565;SDS011;11449;51.330;19.378;2023-02-01T16:24:57;39.20;;;7.50;;
22565;SDS011;11449;51.330;19.378;2023-02-01T16:30:00;45.80;;;7.70;;
22565;SDS011;11449;51.330;19.378;2023-02-01T16:35:17;65.20;;;9.50;;
22565;SDS011;11449;51.330;19.378;2023-02-01T16:40:23;54.90;;;8.90;;
22565;SDS011;11449;51.330;19.378;2023-02-01T16:45:30;73.90;;;11.30;;
22565;SDS011;11449;51.330;19.378;2023-02-01T16:50:38;57.80;;;9.80;;
22565;SDS011;11449;51.330;19.378;2023-02-01T16:55:41;55.70;;;10.70;;
22565;SDS011;11449;51.330;19.378;2023-02-01T17:00:51;70.80;;;12.40;;
22565;SDS011;11449;51.330;19.378;2023-02-01T17:05:59;65.40;;;12.50;;
22565;SDS011;11449;51.330;19.378;2023-02-01T17:11:08;68.10;;;13.00;;
22565;SDS011;11449;51.330;19.378;2023-02-01T17:26:27;55.00;;;8.40;;
22565;SDS011;11449;51.330;19.378;2023-02-01T17:31:30;44.40;;;8.00;;
22565;SDS011;11449;51.330;19.378;2023-02-01T17:36:39;59.30;;;10.00;;
22565;SDS011;11449;51.330;19.378;2023-02-01T17:41:47;52.50;;;7.40;;
22565;SDS011;11449;51.330;19.378;2023-02-01T17:46:55;59.20;;;9.40;;
22565;SDS011;11449;51.330;19.378;2023-02-01T17:52:04;56.80;;;9.80;;
22565;SDS011;11449;51.330;19.378;2023-02-01T17:57:13;67.00;;;16.70;;
22565;SDS011;11449;51.330;19.378;2023-02-01T18:02:21;51.10;;;12.30;;
22565;SDS011;11449;51.330;19.378;2023-02-01T18:07:30;48.00;;;13.80;;
22565;SDS011;11449;51.330;19.378;2023-02-01T18:17:58;47.40;;;9.90;;
22565;SDS011;11449;51.330;19.378;2023-02-01T18:23:01;50.70;;;11.50;;
22565;SDS011;11449;51.330;19.378;2023-02-01T18:28:09;79.20;;;16.60;;
22565;SDS011;11449;51.330;19.378;2023-02-01T18:33:17;65.30;;;13.10;;
22565;SDS011;11449;51.330;19.378;2023-02-01T18:38:25;65.10;;;11.40;;
22565;SDS011;11449;51.330;19.378;2023-02-01T18:43:33;58.50;;;14.30;;
22565;SDS011;11449;51.330;19.378;2023-02-01T18:48:36;65.80;;;17.20;;
22565;SDS011;11449;51.330;19.378;2023-02-01T18:53:39;68.20;;;14.40;;
22565;SDS011;11449;51.330;19.378;2023-02-01T18:58:42;66.50;;;14.40;;
22565;SDS011;11449;51.330;19.378;2023-02-01T19:03:50;88.30;;;17.40;;
22565;SDS011;11449;51.330;19.378;2023-02-01T19:08:53;73.20;;;14.80;;
22565;SDS011;11449;51.330;19.378;2023-02-01T19:13:57;67.80;;;12.70;;
22565;SDS011;11449;51.330;19.378;2023-02-01T19:19:05;65.20;;;14.40;;
22565;SDS011;11449;51.330;19.378;2023-02-01T19:24:13;55.10;;;12.00;;
22565;SDS011;11449;51.330;19.378;2023-02-01T19:29:20;53.00;;;11.20;;
22565;SDS011;11449;51.330;19.378;2023-02-01T19:34:31;62.20;;;14.80;;
22565;SDS011;11449;51.330;19.378;2023-02-01T19:39:40;64.00;;;14.10;;
22565;SDS011;11449;51.330;19.378;2023-02-01T19:44:48;58.30;;;13.80;;
22565;SDS011;11449;51.330;19.378;2023-02-01T19:49:53;82.30;;;15.00;;
22565;SDS011;11449;51.330;19.378;2023-02-01T19:54:56;84.70;;;14.50;;
22565;SDS011;11449;51.330;19.378;2023-02-01T20:00:07;70.70;;;13.20;;
22565;SDS011;11449;51.330;19.378;2023-02-01T20:05:20;49.30;;;10.10;;
22565;SDS011;11449;51.330;19.378;2023-02-01T20:10:30;57.80;;;12.20;;
22565;SDS011;11449;51.330;19.378;2023-02-01T20:21:15;62.40;;;11.70;;
22565;SDS011;11449;51.330;19.378;2023-02-01T20:26:26;51.40;;;8.40;;
22565;SDS011;11449;51.330;19.378;2023-02-01T20:31:50;56.30;;;9.70;;
22565;SDS011;11449;51.330;19.378;2023-02-01T20:36:53;71.00;;;10.70;;
22565;SDS011;11449;51.330;19.378;2023-02-01T20:42:01;63.10;;;8.60;;
22565;SDS011;11449;51.330;19.378;2023-02-01T20:47:12;58.10;;;13.80;;
22565;SDS011;11449;51.330;19.378;2023-02-01T20:52:15;63.90;;;17.60;;
22565;SDS011;11449;51.330;19.378;2023-02-01T20:57:23;65.50;;;14.10;;
22565;SDS011;11449;51.330;19.378;2023-02-01T21:02:26;58.90;;;11.10;;
22565;SDS011;11449;51.330;19.378;2023-02-01T21:07:29;55.40;;;9.50;;
22565;SDS011;11449;51.330;19.378;2023-02-01T21:12:37;39.40;;;9.00;;
22565;SDS011;11449;51.330;19.378;2023-02-01T21:17:40;47.20;;;9.00;;
22565;SDS011;11449;51.330;19.378;2023-02-01T21:22:43;43.20;;;8.40;;
22565;SDS011;11449;51.330;19.378;2023-02-01T21:27:49;45.60;;;8.30;;
22565;SDS011;11449;51.330;19.378;2023-02-01T21:32:56;50.50;;;8.40;;
22565;SDS011;11449;51.330;19.378;2023-02-01T21:38:05;43.30;;;8.30;;
22565;SDS011;11449;51.330;19.378;2023-02-01T21:43:08;42.90;;;9.40;;
22565;SDS011;11449;51.330;19.378;2023-02-01T21:48:21;61.60;;;11.40;;
22565;SDS011;11449;51.330;19.378;2023-02-01T21:53:25;54.30;;;10.70;;
22565;SDS011;11449;51.330;19.378;2023-02-01T21:58:28;43.80;;;9.50;;
22565;SDS011;11449;51.330;19.378;2023-02-01T22:03:36;81.80;;;17.30;;
22565;SDS011;11449;51.330;19.378;2023-02-01T22:08:43;69.30;;;14.00;;
22565;SDS011;11449;51.330;19.378;2023-02-01T22:13:54;58.10;;;12.10;;
22565;SDS011;11449;51.330;19.378;2023-02-01T22:24:12;46.50;;;10.50;;
22565;SDS011;11449;51.330;19.378;2023-02-01T22:29:20;59.10;;;14.50;;
22565;SDS011;11449;51.330;19.378;2023-02-01T22:34:30;49.50;;;12.10;;
22565;SDS011;11449;51.330;19.378;2023-02-01T22:39:33;61.40;;;21.30;;
22565;SDS011;11449;51.330;19.378;2023-02-01T22:44:41;46.10;;;12.30;;
22565;SDS011;11449;51.330;19.378;2023-02-01T22:54:59;47.50;;;12.20;;
22565;SDS011;11449;51.330;19.378;2023-02-01T23:00:10;46.30;;;11.00;;
22565;SDS011;11449;51.330;19.378;2023-02-01T23:05:38;37.10;;;8.80;;
22565;SDS011;11449;51.330;19.378;2023-02-01T23:11:08;32.70;;;6.90;;
22565;SDS011;11449;51.330;19.378;2023-02-01T23:16:16;37.80;;;7.70;;
22565;SDS011;11449;51.330;19.378;2023-02-01T23:21:24;35.40;;;7.00;;
22565;SDS011;11449;51.330;19.378;2023-02-01T23:26:32;36.40;;;7.30;;
22565;SDS011;11449;51.330;19.378;2023-02-01T23:31:40;39.30;;;8.20;;
22565;SDS011;11449;51.330;19.378;2023-02-01T23:36:48;46.50;;;9.70;;
22565;SDS011;11449;51.330;19.378;2023-02-01T23:41:56;48.80;;;9.70;;
22565;SDS011;11449;51.330;19.378;2023-02-01T23:47:04;46.40;;;9.50;;
22565;SDS011;11449;51.330;19.378;2023-02-01T23:52:27;43.30;;;9.30;;
22565;SDS011;11449;51.330;19.378;2023-02-01T23:57:44;44.40;;;10.20;;
